WetterOnline ( https://www.wetteronline.de )

Wetter aktuell Murnau

Aktuelles Wetter: Hohenpeißenberg (986m)

6-stündlich | Neueste Meldungen
Ortszeit Temperatur Wetter
Di, 17.05. 2:00 12.3° C bedeckt
Mo, 16.05. 20:00 10.0° C starker Regen
Mo, 16.05. 14:00 18.9° C bedeckt
Mo, 16.05. 8:00 17.2° C leicht bewölkt
Mo, 16.05. 2:00 16.3° C bewölkt
So, 15.05. 20:00 18.3° C leicht bewölkt
So, 15.05. 14:00 19.9° C wolkenlos
So, 15.05. 8:00 15.0° C leicht bewölkt
Ortszeit Temperatur Wetter
Di, 17.05. 4:00 12.6° C bedeckt
Di, 17.05. 3:40 12.0° C bedeckt
Di, 17.05. 3:30 12.7° C bedeckt
Di, 17.05. 3:20 12.7° C bedeckt
Di, 17.05. 3:10 12.8° C bedeckt
Di, 17.05. 3:00 12.5° C bedeckt
Di, 17.05. 2:50 12.5° C bedeckt
Di, 17.05. 2:30 12.4° C wolkig
Di, 17.05. 2:00 12.3° C bedeckt
Di, 17.05. 1:30 12.2° C bedeckt
Di, 17.05. 1:00 11.9° C wolkig
Ortszeit Relative Feuchte Sichtweite
Di, 17.05. 2:00 83% 55 km
Mo, 16.05. 20:00 95% 2.8 km
Mo, 16.05. 14:00 63% 60 km
Mo, 16.05. 8:00 59% >70 km
Mo, 16.05. 2:00 57% 65 km
So, 15.05. 20:00 52% 50 km
So, 15.05. 14:00 49% 30 km
So, 15.05. 8:00 64% 50 km
Ortszeit Relative Feuchte Sichtweite
Di, 17.05. 4:00 79% 65 km
Di, 17.05. 3:40 82% -
Di, 17.05. 3:30 78% 55 km
Di, 17.05. 3:20 78% -
Di, 17.05. 3:10 78% -
Di, 17.05. 3:00 80% 50 km
Di, 17.05. 2:50 80% -
Di, 17.05. 2:30 81% 60 km
Di, 17.05. 2:00 83% 55 km
Di, 17.05. 1:30 85% 55 km
Di, 17.05. 1:00 88% 50 km
Ortszeit Niederschlagsmenge Niederschlagsart
Di, 17.05. 2:00 6 l/m2 in 6 Std. Regen
Mo, 16.05. 20:00 6 l/m2 in 12 Std. Regen, Niederschlag
Mo, 16.05. 14:00 0.2 l/m2 in 6 Std. Regen
Mo, 16.05. 8:00 0.1 l/m2 in 12 Std. Regen
Mo, 16.05. 2:00 0.0 l/m2 in 6 Std. -
So, 15.05. 20:00 0.0 l/m2 in 12 Std. -
So, 15.05. 14:00 0.0 l/m2 in 6 Std. -
So, 15.05. 8:00 0.0 l/m2 in 12 Std. -
Ortszeit Niederschlagsmenge Niederschlagsart
Di, 17.05. 4:00 0.0 l/m2 in 1 Std. -
Di, 17.05. 3:40 keine Meldung -
Di, 17.05. 3:30 0.0 l/m2 in 1 Std. -
Di, 17.05. 3:20 keine Meldung -
Di, 17.05. 3:10 keine Meldung -
Di, 17.05. 3:00 0.0 l/m2 in 1 Std. -
Di, 17.05. 2:50 keine Meldung -
Di, 17.05. 2:30 0.0 l/m2 in 1 Std. -
Di, 17.05. 2:00 0.0 l/m2 in 1 Std. Regen
Di, 17.05. 1:30 0.0 l/m2 in 1 Std. -
Di, 17.05. 1:00 0.1 l/m2 in 1 Std. -
Ortszeit Stärke Spitze Richtung
km/h Bft. km/h Grad Sektor
Di, 17.05. 2:00 18 3 40 250° W
Mo, 16.05. 20:00 26 4 52 260° W
Mo, 16.05. 14:00 11 2 47 180° S
Mo, 16.05. 8:00 9 2 37 190° S
Mo, 16.05. 2:00 14 3 29 240° SW
So, 15.05. 20:00 17 3 24 40° NO
So, 15.05. 14:00 13 3 26 40° NO
So, 15.05. 8:00 6 1 20 100° O
Ortszeit Stärke Spitze Richtung
km/h Bft. km/h Grad Sektor
Di, 17.05. 4:00 14 3 25 280° W
Di, 17.05. 3:40 14 3 - 280° W
Di, 17.05. 3:30 15 3 22 270° W
Di, 17.05. 3:20 15 3 - 270° W
Di, 17.05. 3:10 13 3 - 260° W
Di, 17.05. 3:00 18 3 29 260° W
Di, 17.05. 2:50 18 3 - 260° W
Di, 17.05. 2:30 20 4 30 250° W
Di, 17.05. 2:00 18 3 32 250° W
Di, 17.05. 1:30 18 3 32 250° W
Di, 17.05. 1:00 22 4 40 250° W
Ortszeit Untergrenze Bedeckung Gattung
total tief tief mittel hoch
Di, 17.05. 2:00 4800 m 8/8 8/8 - - -
Mo, 16.05. 20:00 420 m 7/8 7/8 - - -
Mo, 16.05. 14:00 3300 m 8/8 8/8 - - -
Mo, 16.05. 8:00 2400 m 3/8 1/8 - - -
Mo, 16.05. 2:00 2700 m 8/8 6/8 - - -
So, 15.05. 20:00 9000 m 3/8 0/8 - - -
So, 15.05. 14:00 - 0/8 0/8 - - -
So, 15.05. 8:00 9000 m 8/8 0/8 - - -
Ortszeit Bedeckungsgrad in Achtel und Wolkenuntergrenze
Di, 17.05. 4:00 8(4800m) 8(6600m) 8(7200m)
Di, 17.05. 3:40 8
Di, 17.05. 3:30 8(4500m) 8(6600m) 8(7200m)
Di, 17.05. 3:20 8(4500m) 8(6600m) 8(7200m)
Di, 17.05. 3:10 8
Di, 17.05. 3:00 7(5100m) 8(6900m) 8(7500m)
Di, 17.05. 2:50 7(5100m) 8(6900m) 8(7500m)
Di, 17.05. 2:30 1(2100m) 8(5100m) 8(6900m)
Di, 17.05. 2:00 8(4800m) 8(6600m) 8(7500m)
Di, 17.05. 1:30 8(4800m) 8(6300m) 8(7500m)
Di, 17.05. 1:00 6(4800m) 6(5700m) 6(7800m)
Ortszeit Stationsdruck (hPa) Tendenz (hPa in 3 Std.)
Di, 17.05. 2:00 910 + 0,2
Mo, 16.05. 20:00 909 + 1,8
Mo, 16.05. 14:00 909 - 0,5
Mo, 16.05. 8:00 907 + 0,3
Mo, 16.05. 2:00 907 + 0,5
So, 15.05. 20:00 906 - 0,6
So, 15.05. 14:00 907 - 0,7
So, 15.05. 8:00 908 + 0,3
Ortszeit Stationsdruck (hPa) Tendenz (hPa in 3 Std.)
Di, 17.05. 4:00 910 - 0,3
Di, 17.05. 3:40 910 keine Meldung
Di, 17.05. 3:30 910 - 0,2
Di, 17.05. 3:20 910 keine Meldung
Di, 17.05. 3:10 910 keine Meldung
Di, 17.05. 3:00 910 0,0
Di, 17.05. 2:50 910 keine Meldung
Di, 17.05. 2:30 910 0,0
Di, 17.05. 2:00 910 + 0,2
Di, 17.05. 1:30 910 + 0,2
Di, 17.05. 1:00 910 + 0,2
Ortszeit Schneehöhe (cm)
Di, 17.05. 2:00 0
Mo, 16.05. 20:00 0
Mo, 16.05. 14:00 0
Mo, 16.05. 8:00 0
Mo, 16.05. 2:00 0
So, 15.05. 20:00 0
So, 15.05. 14:00 0
So, 15.05. 8:00 0
Ortszeit Schneehöhe (cm)
Di, 17.05. 4:00 0
Di, 17.05. 3:40 0
Di, 17.05. 3:30 0
Di, 17.05. 3:20 0
Di, 17.05. 3:10 0
Di, 17.05. 3:00 0
Di, 17.05. 2:50 0
Di, 17.05. 2:30 0
Di, 17.05. 2:00 0
Di, 17.05. 1:30 0
Di, 17.05. 1:00 0
Link zu dieser Seite / Seite empfehlen

Das Wetter in ...